sensor_id;sensor_type;location;lat;lon;timestamp;pressure;altitude;pressure_sealevel;temperature;humidity
41712;BME280;27399;51.516;13.670;2023-04-20T00:00:16;100876.03;;;8.22;86.07
41712;BME280;27399;51.516;13.670;2023-04-20T00:02:42;100880.53;;;8.31;85.73
41712;BME280;27399;51.516;13.670;2023-04-20T00:05:09;100875.47;;;7.62;86.52
41712;BME280;27399;51.516;13.670;2023-04-20T00:07:35;100876.00;;;8.21;85.44
41712;BME280;27399;51.516;13.670;2023-04-20T00:10:01;100880.22;;;7.94;86.62
41712;BME280;27399;51.516;13.670;2023-04-20T00:12:28;100874.19;;;8.15;85.64
41712;BME280;27399;51.516;13.670;2023-04-20T00:14:53;100875.91;;;8.07;86.34
41712;BME280;27399;51.516;13.670;2023-04-20T00:17:20;100866.28;;;8.23;86.02
41712;BME280;27399;51.516;13.670;2023-04-20T00:19:46;100867.09;;;8.11;85.30
41712;BME280;27399;51.516;13.670;2023-04-20T00:22:11;100864.47;;;8.17;85.50
41712;BME280;27399;51.516;13.670;2023-04-20T00:24:37;100867.19;;;8.27;85.89
41712;BME280;27399;51.516;13.670;2023-04-20T00:27:03;100868.97;;;8.28;85.97
41712;BME280;27399;51.516;13.670;2023-04-20T00:29:28;100867.88;;;8.02;85.56
41712;BME280;27399;51.516;13.670;2023-04-20T00:31:54;100861.78;;;8.11;85.77
41712;BME280;27399;51.516;13.670;2023-04-20T00:34:20;100867.00;;;8.02;86.64
41712;BME280;27399;51.516;13.670;2023-04-20T00:36:45;100868.06;;;8.26;85.42
41712;BME280;27399;51.516;13.670;2023-04-20T00:39:11;100866.31;;;8.26;85.72
41712;BME280;27399;51.516;13.670;2023-04-20T00:41:37;100856.63;;;8.36;85.23
41712;BME280;27399;51.516;13.670;2023-04-20T00:44:06;100863.66;;;8.25;85.96
41712;BME280;27399;51.516;13.670;2023-04-20T00:46:32;100862.75;;;8.22;86.38
41712;BME280;27399;51.516;13.670;2023-04-20T00:48:59;100861.03;;;8.31;85.69
41712;BME280;27399;51.516;13.670;2023-04-20T00:51:25;100851.28;;;8.31;85.34
41712;BME280;27399;51.516;13.670;2023-04-20T00:53:52;100859.31;;;8.39;84.92
41712;BME280;27399;51.516;13.670;2023-04-20T00:56:18;100866.31;;;8.25;85.99
41712;BME280;27399;51.516;13.670;2023-04-20T00:58:44;100861.00;;;8.28;85.62
41712;BME280;27399;51.516;13.670;2023-04-20T01:01:11;100851.34;;;8.39;84.94
41712;BME280;27399;51.516;13.670;2023-04-20T01:03:38;100862.78;;;8.29;85.94
41712;BME280;27399;51.516;13.670;2023-04-20T01:06:04;100866.31;;;8.26;85.72
41712;BME280;27399;51.516;13.670;2023-04-20T01:08:30;100854.00;;;8.37;85.91
41712;BME280;27399;51.516;13.670;2023-04-20T01:10:56;100855.75;;;8.37;86.17
41712;BME280;27399;51.516;13.670;2023-04-20T01:13:22;100851.28;;;8.30;86.36
41712;BME280;27399;51.516;13.670;2023-04-20T01:15:48;100849.53;;;8.32;86.21
41712;BME280;27399;51.516;13.670;2023-04-20T01:18:13;100849.59;;;8.41;85.76
41712;BME280;27399;51.516;13.670;2023-04-20T01:20:39;100845.16;;;8.38;85.36
41712;BME280;27399;51.516;13.670;2023-04-20T01:23:05;100847.78;;;8.34;85.27
41712;BME280;27399;51.516;13.670;2023-04-20T01:25:31;100849.56;;;8.38;85.45
41712;BME280;27399;51.516;13.670;2023-04-20T01:27:56;100847.75;;;8.31;85.62
41712;BME280;27399;51.516;13.670;2023-04-20T01:30:22;100854.78;;;8.22;86.30
41712;BME280;27399;51.516;13.670;2023-04-20T01:32:48;100844.19;;;8.29;86.28
41712;BME280;27399;51.516;13.670;2023-04-20T01:35:13;100845.13;;;8.34;85.83
41712;BME280;27399;51.516;13.670;2023-04-20T01:37:40;100846.91;;;8.36;86.32
41712;BME280;27399;51.516;13.670;2023-04-20T01:40:11;100847.72;;;8.28;86.12
41712;BME280;27399;51.516;13.670;2023-04-20T01:42:37;100840.69;;;8.36;86.27
41712;BME280;27399;51.516;13.670;2023-04-20T01:45:06;100844.28;;;8.41;86.03
41712;BME280;27399;51.516;13.670;2023-04-20T01:47:33;100848.72;;;8.41;86.25
41712;BME280;27399;51.516;13.670;2023-04-20T01:49:59;100853.91;;;8.27;86.08
41712;BME280;27399;51.516;13.670;2023-04-20T01:52:25;100847.63;;;8.14;86.24
41712;BME280;27399;51.516;13.670;2023-04-20T01:54:50;100839.78;;;8.32;86.13
41712;BME280;27399;51.516;13.670;2023-04-20T01:57:16;100852.13;;;8.24;86.50
41712;BME280;27399;51.516;13.670;2023-04-20T01:59:42;100842.41;;;8.28;86.48
41712;BME280;27399;51.516;13.670;2023-04-20T02:02:07;100846.88;;;8.30;86.07
41712;BME280;27399;51.516;13.670;2023-04-20T02:04:33;100838.84;;;8.22;86.76
41712;BME280;27399;51.516;13.670;2023-04-20T02:06:58;100843.34;;;8.36;86.43
41712;BME280;27399;51.516;13.670;2023-04-20T02:09:24;100846.78;;;8.19;86.14
41712;BME280;27399;51.516;13.670;2023-04-20T02:11:50;100846.75;;;8.16;86.00
41712;BME280;27399;51.516;13.670;2023-04-20T02:14:15;100847.59;;;8.09;86.84
41712;BME280;27399;51.516;13.670;2023-04-20T02:16:41;100849.25;;;7.98;86.53
41712;BME280;27399;51.516;13.670;2023-04-20T02:19:07;100850.25;;;8.09;86.45
41712;BME280;27399;51.516;13.670;2023-04-20T02:21:33;100843.06;;;8.00;86.71
41712;BME280;27399;51.516;13.670;2023-04-20T02:23:58;100850.16;;;7.98;86.61
41712;BME280;27399;51.516;13.670;2023-04-20T02:26:25;100851.91;;;7.99;87.01
41712;BME280;27399;51.516;13.670;2023-04-20T02:28:51;100855.50;;;8.04;87.33
41712;BME280;27399;51.516;13.670;2023-04-20T02:31:17;100854.69;;;8.09;87.19
41712;BME280;27399;51.516;13.670;2023-04-20T02:33:42;100859.09;;;8.06;87.09
41712;BME280;27399;51.516;13.670;2023-04-20T02:36:08;100862.59;;;8.05;87.38
41712;BME280;27399;51.516;13.670;2023-04-20T02:38:34;100855.59;;;8.14;87.27
41712;BME280;27399;51.516;13.670;2023-04-20T02:41:00;100861.84;;;8.20;86.87
41712;BME280;27399;51.516;13.670;2023-04-20T02:43:26;100860.06;;;8.19;86.71
41712;BME280;27399;51.516;13.670;2023-04-20T02:45:51;100859.88;;;7.98;86.86
41712;BME280;27399;51.516;13.670;2023-04-20T02:48:17;100851.09;;;8.08;86.31
41712;BME280;27399;51.516;13.670;2023-04-20T02:50:43;100857.09;;;7.85;86.89
41712;BME280;27399;51.516;13.670;2023-04-20T02:53:08;100860.91;;;8.15;85.82
41712;BME280;27399;51.516;13.670;2023-04-20T02:55:34;100856.34;;;7.99;85.66
41712;BME280;27399;51.516;13.670;2023-04-20T02:57:59;100853.00;;;8.23;85.00
41712;BME280;27399;51.516;13.670;2023-04-20T03:00:25;100856.31;;;7.96;85.29
41712;BME280;27399;51.516;13.670;2023-04-20T03:02:51;100865.09;;;7.88;85.26
41712;BME280;27399;51.516;13.670;2023-04-20T03:05:16;100857.97;;;7.81;85.63
41712;BME280;27399;51.516;13.670;2023-04-20T03:07:42;100852.69;;;7.87;85.34
41712;BME280;27399;51.516;13.670;2023-04-20T03:10:08;100858.91;;;7.88;85.69
41712;BME280;27399;51.516;13.670;2023-04-20T03:12:34;100855.28;;;7.80;85.73
41712;BME280;27399;51.516;13.670;2023-04-20T03:15:00;100855.22;;;7.75;85.84
41712;BME280;27399;51.516;13.670;2023-04-20T03:17:25;100854.53;;;7.93;85.92
41712;BME280;27399;51.516;13.670;2023-04-20T03:19:51;100857.13;;;7.87;85.72
41712;BME280;27399;51.516;13.670;2023-04-20T03:22:17;100860.66;;;7.89;85.34
41712;BME280;27399;51.516;13.670;2023-04-20T03:24:45;100854.44;;;7.85;85.78
41712;BME280;27399;51.516;13.670;2023-04-20T03:27:12;100862.44;;;7.88;84.94
41712;BME280;27399;51.516;13.670;2023-04-20T03:29:37;100859.09;;;8.08;85.05
41712;BME280;27399;51.516;13.670;2023-04-20T03:32:03;100860.78;;;7.98;85.58
41712;BME280;27399;51.516;13.670;2023-04-20T03:34:28;100869.53;;;7.88;85.11
41712;BME280;27399;51.516;13.670;2023-04-20T03:36:54;100865.16;;;7.95;85.33
41712;BME280;27399;51.516;13.670;2023-04-20T03:39:19;100868.84;;;8.09;85.14
41712;BME280;27399;51.516;13.670;2023-04-20T03:41:48;100856.38;;;8.02;84.14
41712;BME280;27399;51.516;13.670;2023-04-20T03:44:13;100863.47;;;8.03;83.66
41712;BME280;27399;51.516;13.670;2023-04-20T03:46:39;100864.28;;;7.93;83.53
41712;BME280;27399;51.516;13.670;2023-04-20T03:49:05;100866.94;;;7.96;83.94
41712;BME280;27399;51.516;13.670;2023-04-20T03:51:31;100873.06;;;7.88;84.45
41712;BME280;27399;51.516;13.670;2023-04-20T03:53:57;100873.03;;;7.82;83.18
41712;BME280;27399;51.516;13.670;2023-04-20T03:56:22;100879.38;;;8.01;83.78
41712;BME280;27399;51.516;13.670;2023-04-20T03:58:48;100880.16;;;7.89;84.05
41712;BME280;27399;51.516;13.670;2023-04-20T04:01:13;100881.00;;;7.84;83.68
41712;BME280;27399;51.516;13.670;2023-04-20T04:03:40;100881.03;;;7.90;83.49
41712;BME280;27399;51.516;13.670;2023-04-20T04:06:06;100890.72;;;7.83;84.29
41712;BME280;27399;51.516;13.670;2023-04-20T04:08:32;100884.66;;;7.97;83.27
41712;BME280;27399;51.516;13.670;2023-04-20T04:10:59;100883.75;;;7.95;83.21
41712;BME280;27399;51.516;13.670;2023-04-20T04:13:24;100885.41;;;7.83;82.93
41712;BME280;27399;51.516;13.670;2023-04-20T04:15:50;100889.00;;;7.90;83.26
41712;BME280;27399;51.516;13.670;2023-04-20T04:18:16;100898.75;;;7.88;82.61
41712;BME280;27399;51.516;13.670;2023-04-20T04:20:41;100891.75;;;7.99;82.71
41712;BME280;27399;51.516;13.670;2023-04-20T04:23:07;100896.88;;;7.79;83.52
41712;BME280;27399;51.516;13.670;2023-04-20T04:25:33;100900.59;;;7.97;82.52
41712;BME280;27399;51.516;13.670;2023-04-20T04:28:01;100901.31;;;7.80;83.19
41712;BME280;27399;51.516;13.670;2023-04-20T04:30:27;100906.69;;;7.86;82.42
41712;BME280;27399;51.516;13.670;2023-04-20T04:32:53;100898.66;;;7.80;82.18
41712;BME280;27399;51.516;13.670;2023-04-20T04:35:19;100899.53;;;7.79;83.42
41712;BME280;27399;51.516;13.670;2023-04-20T04:37:45;100900.22;;;7.63;82.91
41712;BME280;27399;51.516;13.670;2023-04-20T04:40:11;100907.97;;;7.42;82.60
41712;BME280;27399;51.516;13.670;2023-04-20T04:42:37;100908.84;;;7.40;82.95
41712;BME280;27399;51.516;13.670;2023-04-20T04:45:03;100910.84;;;7.59;82.45
41712;BME280;27399;51.516;13.670;2023-04-20T04:47:35;100910.78;;;7.56;83.00
41712;BME280;27399;51.516;13.670;2023-04-20T04:50:04;100922.75;;;7.23;83.53
41712;BME280;27399;51.516;13.670;2023-04-20T04:52:31;100920.28;;;7.37;82.25
41712;BME280;27399;51.516;13.670;2023-04-20T04:54:57;100922.16;;;7.46;82.62
41712;BME280;27399;51.516;13.670;2023-04-20T04:57:23;100927.44;;;7.43;82.92
41712;BME280;27399;51.516;13.670;2023-04-20T04:59:49;100919.31;;;7.31;82.81
41712;BME280;27399;51.516;13.670;2023-04-20T05:02:15;100925.47;;;7.26;83.02
41712;BME280;27399;51.516;13.670;2023-04-20T05:04:40;100923.31;;;6.97;82.77
41712;BME280;27399;51.516;13.670;2023-04-20T05:07:06;100933.47;;;7.29;82.17
41712;BME280;27399;51.516;13.670;2023-04-20T05:09:35;100930.59;;;7.14;82.90
41712;BME280;27399;51.516;13.670;2023-04-20T05:12:01;100930.66;;;7.19;82.51
41712;BME280;27399;51.516;13.670;2023-04-20T05:14:29;100938.47;;;7.08;83.32
41712;BME280;27399;51.516;13.670;2023-04-20T05:16:55;100934.97;;;7.12;82.80
41712;BME280;27399;51.516;13.670;2023-04-20T05:19:21;100929.91;;;7.27;83.16
41712;BME280;27399;51.516;13.670;2023-04-20T05:21:46;100932.44;;;7.18;82.28
41712;BME280;27399;51.516;13.670;2023-04-20T05:24:12;100931.59;;;7.22;81.83
41712;BME280;27399;51.516;13.670;2023-04-20T05:26:37;100929.22;;;7.44;82.16
41712;BME280;27399;51.516;13.670;2023-04-20T05:29:03;100929.91;;;7.27;83.16
41712;BME280;27399;51.516;13.670;2023-04-20T05:31:29;100930.88;;;7.36;82.86
41712;BME280;27399;51.516;13.670;2023-04-20T05:33:57;100920.81;;;7.10;82.57
41712;BME280;27399;51.516;13.670;2023-04-20T05:36:23;100921.41;;;6.90;83.10
41712;BME280;27399;51.516;13.670;2023-04-20T05:38:49;100921.03;;;7.25;81.28
41712;BME280;27399;51.516;13.670;2023-04-20T05:41:14;100928.16;;;7.29;82.24
41712;BME280;27399;51.516;13.670;2023-04-20T05:43:40;100935.09;;;7.21;82.29
41712;BME280;27399;51.516;13.670;2023-04-20T05:46:06;100940.59;;;7.34;82.69
41712;BME280;27399;51.516;13.670;2023-04-20T05:48:31;100934.41;;;7.36;82.22
41712;BME280;27399;51.516;13.670;2023-04-20T05:50:57;100945.94;;;7.37;82.33
41712;BME280;27399;51.516;13.670;2023-04-20T05:53:22;100951.19;;;7.34;82.80
41712;BME280;27399;51.516;13.670;2023-04-20T05:55:48;100959.38;;;7.52;82.59
41712;BME280;27399;51.516;13.670;2023-04-20T05:58:14;100953.84;;;7.32;83.46
41712;BME280;27399;51.516;13.670;2023-04-20T06:00:40;100962.50;;;7.20;82.24
41712;BME280;27399;51.516;13.670;2023-04-20T06:03:05;100954.59;;;7.23;82.64
41712;BME280;27399;51.516;13.670;2023-04-20T06:05:31;100946.91;;;7.45;81.86
41712;BME280;27399;51.516;13.670;2023-04-20T06:07:56;100946.97;;;7.48;82.06
41712;BME280;27399;51.516;13.670;2023-04-20T06:10:22;100951.19;;;7.34;81.15
41712;BME280;27399;51.516;13.670;2023-04-20T06:12:48;100946.81;;;7.36;81.42
41712;BME280;27399;51.516;13.670;2023-04-20T06:15:13;100945.13;;;7.42;82.66
41712;BME280;27399;51.516;13.670;2023-04-20T06:17:39;100932.69;;;7.38;82.68
41712;BME280;27399;51.516;13.670;2023-04-20T06:20:08;100942.31;;;7.32;82.52
41712;BME280;27399;51.516;13.670;2023-04-20T06:22:35;100944.16;;;7.36;82.71
41712;BME280;27399;51.516;13.670;2023-04-20T06:25:01;100951.47;;;7.54;81.72
41712;BME280;27399;51.516;13.670;2023-04-20T06:27:27;100957.53;;;7.43;81.83
41712;BME280;27399;51.516;13.670;2023-04-20T06:29:53;100954.13;;;7.54;81.77
41712;BME280;27399;51.516;13.670;2023-04-20T06:32:19;100958.28;;;7.35;81.48
41712;BME280;27399;51.516;13.670;2023-04-20T06:34:44;100953.16;;;7.47;81.37
41712;BME280;27399;51.516;13.670;2023-04-20T06:37:12;100962.94;;;7.53;81.80
41712;BME280;27399;51.516;13.670;2023-04-20T06:39:37;100951.88;;;7.20;81.49
41712;BME280;27399;51.516;13.670;2023-04-20T06:42:03;100944.38;;;7.51;81.21
41712;BME280;27399;51.516;13.670;2023-04-20T06:44:29;100946.31;;;7.68;82.38
41712;BME280;27399;51.516;13.670;2023-04-20T06:46:54;100952.50;;;7.67;83.03
41712;BME280;27399;51.516;13.670;2023-04-20T06:49:20;100955.22;;;7.73;82.22
41712;BME280;27399;51.516;13.670;2023-04-20T06:51:46;100963.19;;;7.73;82.19
41712;BME280;27399;51.516;13.670;2023-04-20T06:54:11;100960.66;;;7.82;81.84
41712;BME280;27399;51.516;13.670;2023-04-20T06:56:37;100965.00;;;7.75;82.25
41712;BME280;27399;51.516;13.670;2023-04-20T06:59:02;100968.44;;;7.68;82.72
41712;BME280;27399;51.516;13.670;2023-04-20T07:01:28;100967.59;;;7.71;81.60
41712;BME280;27399;51.516;13.670;2023-04-20T07:03:54;100967.13;;;8.07;81.72
41712;BME280;27399;51.516;13.670;2023-04-20T07:06:19;100964.56;;;8.18;82.03
41712;BME280;27399;51.516;13.670;2023-04-20T07:08:45;100959.84;;;7.88;83.04
41712;BME280;27399;51.516;13.670;2023-04-20T07:11:10;100968.06;;;8.13;83.16
41712;BME280;27399;51.516;13.670;2023-04-20T07:13:36;100969.84;;;8.12;81.31
41712;BME280;27399;51.516;13.670;2023-04-20T07:16:01;100972.66;;;8.29;81.17
41712;BME280;27399;51.516;13.670;2023-04-20T07:18:27;100962.88;;;8.27;81.58
41712;BME280;27399;51.516;13.670;2023-04-20T07:20:53;100965.25;;;7.97;81.06
41712;BME280;27399;51.516;13.670;2023-04-20T07:23:18;100957.09;;;7.80;80.52
41712;BME280;27399;51.516;13.670;2023-04-20T07:25:44;100962.53;;;7.93;82.35
41712;BME280;27399;51.516;13.670;2023-04-20T07:28:10;100961.03;;;8.19;81.09
41712;BME280;27399;51.516;13.670;2023-04-20T07:30:35;100963.59;;;8.10;81.81
41712;BME280;27399;51.516;13.670;2023-04-20T07:33:01;100970.84;;;8.24;82.18
41712;BME280;27399;51.516;13.670;2023-04-20T07:35:27;100968.34;;;8.42;82.01
41712;BME280;27399;51.516;13.670;2023-04-20T07:37:52;100977.16;;;8.35;80.31
41712;BME280;27399;51.516;13.670;2023-04-20T07:40:18;100967.47;;;8.45;81.20
41712;BME280;27399;51.516;13.670;2023-04-20T07:42:43;100977.09;;;8.32;81.48
41712;BME280;27399;51.516;13.670;2023-04-20T07:45:11;100982.25;;;8.16;81.83
41712;BME280;27399;51.516;13.670;2023-04-20T07:47:37;100975.56;;;8.51;81.41
41712;BME280;27399;51.516;13.670;2023-04-20T07:50:04;100972.91;;;8.52;82.41
41712;BME280;27399;51.516;13.670;2023-04-20T07:52:30;100972.72;;;8.35;81.11
41712;BME280;27399;51.516;13.670;2023-04-20T07:54:56;100982.44;;;8.33;80.17
41712;BME280;27399;51.516;13.670;2023-04-20T07:57:26;100961.34;;;8.50;81.38
41712;BME280;27399;51.516;13.670;2023-04-20T07:59:52;100966.81;;;8.69;81.38
41712;BME280;27399;51.516;13.670;2023-04-20T08:02:18;100972.03;;;8.53;80.34
41712;BME280;27399;51.516;13.670;2023-04-20T08:04:43;100964.13;;;8.63;80.71
41712;BME280;27399;51.516;13.670;2023-04-20T08:07:10;100968.56;;;8.64;80.70
41712;BME280;27399;51.516;13.670;2023-04-20T08:09:36;100966.91;;;8.81;80.59
41712;BME280;27399;51.516;13.670;2023-04-20T08:12:02;100967.75;;;8.73;79.37
41712;BME280;27399;51.516;13.670;2023-04-20T08:14:28;100971.19;;;8.61;78.83
41712;BME280;27399;51.516;13.670;2023-04-20T08:16:53;100976.69;;;8.84;78.97
41712;BME280;27399;51.516;13.670;2023-04-20T08:19:19;100976.69;;;8.82;79.93
41712;BME280;27399;51.516;13.670;2023-04-20T08:21:44;100977.53;;;8.75;79.14
41712;BME280;27399;51.516;13.670;2023-04-20T08:24:10;100971.09;;;8.50;80.08
41712;BME280;27399;51.516;13.670;2023-04-20T08:26:38;100973.84;;;8.61;79.91
41712;BME280;27399;51.516;13.670;2023-04-20T08:29:04;100960.78;;;8.89;79.98
41712;BME280;27399;51.516;13.670;2023-04-20T08:31:30;100975.63;;;8.63;80.23
41712;BME280;27399;51.516;13.670;2023-04-20T08:33:56;100984.69;;;8.86;78.62
41712;BME280;27399;51.516;13.670;2023-04-20T08:36:22;100974.94;;;8.83;78.16
41712;BME280;27399;51.516;13.670;2023-04-20T08:38:55;100972.41;;;9.08;79.19
41712;BME280;27399;51.516;13.670;2023-04-20T08:41:22;100967.09;;;9.06;78.58
41712;BME280;27399;51.516;13.670;2023-04-20T08:43:48;100969.59;;;8.84;79.58
41712;BME280;27399;51.516;13.670;2023-04-20T08:46:16;100971.34;;;8.82;78.43
41712;BME280;27399;51.516;13.670;2023-04-20T08:48:45;100973.84;;;8.61;78.51
41712;BME280;27399;51.516;13.670;2023-04-20T08:51:14;100972.94;;;8.57;79.40
41712;BME280;27399;51.516;13.670;2023-04-20T08:53:39;100970.53;;;8.91;79.42
41712;BME280;27399;51.516;13.670;2023-04-20T08:56:05;100983.00;;;8.97;80.32
41712;BME280;27399;51.516;13.670;2023-04-20T08:58:31;100992.63;;;8.81;78.82
41712;BME280;27399;51.516;13.670;2023-04-20T09:00:57;100987.44;;;8.99;79.66
41712;BME280;27399;51.516;13.670;2023-04-20T09:03:36;100995.47;;;9.06;79.75
41712;BME280;27399;51.516;13.670;2023-04-20T09:06:13;100999.84;;;8.97;79.98
41712;BME280;27399;51.516;13.670;2023-04-20T09:08:41;101003.47;;;9.10;80.65
41712;BME280;27399;51.516;13.670;2023-04-20T09:11:20;101002.59;;;9.08;80.84
41712;BME280;27399;51.516;13.670;2023-04-20T09:14:00;100986.63;;;9.11;81.80
41712;BME280;27399;51.516;13.670;2023-04-20T09:16:26;100984.81;;;9.04;83.45
41712;BME280;27399;51.516;13.670;2023-04-20T09:18:53;100971.38;;;8.86;83.81
41712;BME280;27399;51.516;13.670;2023-04-20T09:21:20;101003.47;;;9.10;84.33
41712;BME280;27399;51.516;13.670;2023-04-20T09:24:04;100995.56;;;9.23;84.72
41712;BME280;27399;51.516;13.670;2023-04-20T09:26:33;101000.00;;;9.21;85.39
41712;BME280;27399;51.516;13.670;2023-04-20T09:29:00;100992.94;;;9.26;84.88
41712;BME280;27399;51.516;13.670;2023-04-20T09:31:26;100989.34;;;9.21;85.54
41712;BME280;27399;51.516;13.670;2023-04-20T09:34:00;100988.47;;;9.19;86.98
41712;BME280;27399;51.516;13.670;2023-04-20T09:36:41;100978.81;;;9.35;86.10
41712;BME280;27399;51.516;13.670;2023-04-20T09:39:12;100983.25;;;9.43;85.84
41712;BME280;27399;51.516;13.670;2023-04-20T09:41:39;100979.66;;;9.29;84.95
41712;BME280;27399;51.516;13.670;2023-04-20T09:44:06;100984.91;;;9.18;86.57
41712;BME280;27399;51.516;13.670;2023-04-20T09:46:34;100983.94;;;9.04;85.38
41712;BME280;27399;51.516;13.670;2023-04-20T09:49:03;100986.63;;;9.10;86.95
41712;BME280;27399;51.516;13.670;2023-04-20T09:51:31;100988.53;;;9.28;85.59
41712;BME280;27399;51.516;13.670;2023-04-20T09:53:58;100985.84;;;9.28;85.48
41712;BME280;27399;51.516;13.670;2023-04-20T09:56:25;100984.13;;;9.36;85.73
41712;BME280;27399;51.516;13.670;2023-04-20T09:58:53;100974.34;;;9.29;84.74
41712;BME280;27399;51.516;13.670;2023-04-20T10:01:20;100977.91;;;9.34;85.36
41712;BME280;27399;51.516;13.670;2023-04-20T10:03:49;100981.44;;;9.33;86.42
41712;BME280;27399;51.516;13.670;2023-04-20T10:08:43;100980.53;;;9.28;87.13
41712;BME280;27399;51.516;13.670;2023-04-20T10:11:09;100973.47;;;9.30;86.63
41712;BME280;27399;51.516;13.670;2023-04-20T10:13:36;100976.97;;;9.27;85.77
41712;BME280;27399;51.516;13.670;2023-04-20T10:16:02;100978.81;;;9.35;87.39
41712;BME280;27399;51.516;13.670;2023-04-20T10:18:28;100971.66;;;9.24;86.71
41712;BME280;27399;51.516;13.670;2023-04-20T10:21:05;100970.75;;;9.24;85.99
41712;BME280;27399;51.516;13.670;2023-04-20T10:23:33;100955.69;;;9.32;85.84
41712;BME280;27399;51.516;13.670;2023-04-20T10:25:59;100968.97;;;9.27;86.48
41712;BME280;27399;51.516;13.670;2023-04-20T10:28:46;100970.84;;;9.42;86.53
41712;BME280;27399;51.516;13.670;2023-04-20T10:31:12;100960.13;;;9.28;86.79
41712;BME280;27399;51.516;13.670;2023-04-20T10:33:55;100960.13;;;9.25;86.08
41712;BME280;27399;51.516;13.670;2023-04-20T10:36:27;100963.75;;;9.44;86.77
41712;BME280;27399;51.516;13.670;2023-04-20T10:38:54;100956.59;;;9.34;85.33
41712;BME280;27399;51.516;13.670;2023-04-20T10:41:20;100948.69;;;9.45;86.80
41712;BME280;27399;51.516;13.670;2023-04-20T10:43:46;100953.06;;;9.34;88.68
41712;BME280;27399;51.516;13.670;2023-04-20T10:46:17;100944.25;;;9.44;88.39
41712;BME280;27399;51.516;13.670;2023-04-20T10:48:53;100938.94;;;9.53;87.01
41712;BME280;27399;51.516;13.670;2023-04-20T10:51:20;100930.13;;;9.62;86.57
41712;BME280;27399;51.516;13.670;2023-04-20T10:54:05;100925.66;;;9.59;87.07
41712;BME280;27399;51.516;13.670;2023-04-20T10:56:38;100929.19;;;9.58;87.41
41712;BME280;27399;51.516;13.670;2023-04-20T10:59:08;100919.47;;;9.62;87.85
41712;BME280;27399;51.516;13.670;2023-04-20T11:01:34;100912.31;;;9.49;89.20
41712;BME280;27399;51.516;13.670;2023-04-20T11:04:00;100907.88;;;9.58;89.30
41712;BME280;27399;51.516;13.670;2023-04-20T11:06:26;100923.00;;;9.67;88.81
41712;BME280;27399;51.516;13.670;2023-04-20T11:08:53;100916.78;;;9.57;88.79
41712;BME280;27399;51.516;13.670;2023-04-20T11:11:23;100913.28;;;9.79;88.19
41712;BME280;27399;51.516;13.670;2023-04-20T11:13:52;100919.44;;;9.59;90.01
41712;BME280;27399;51.516;13.670;2023-04-20T11:16:29;100914.16;;;9.77;88.24
41712;BME280;27399;51.516;13.670;2023-04-20T11:18:55;100915.06;;;9.80;88.42
41712;BME280;27399;51.516;13.670;2023-04-20T11:21:22;100917.69;;;9.72;86.98
41712;BME280;27399;51.516;13.670;2023-04-20T11:23:48;100917.72;;;9.73;86.19
41712;BME280;27399;51.516;13.670;2023-04-20T11:26:14;100911.53;;;9.85;87.23
41712;BME280;27399;51.516;13.670;2023-04-20T11:28:53;100923.09;;;9.97;87.74
41712;BME280;27399;51.516;13.670;2023-04-20T11:31:19;100910.69;;;10.13;86.06
41712;BME280;27399;51.516;13.670;2023-04-20T11:33:45;100911.56;;;10.08;86.64
41712;BME280;27399;51.516;13.670;2023-04-20T11:36:21;100896.47;;;10.01;87.74
41712;BME280;27399;51.516;13.670;2023-04-20T11:38:47;100905.34;;;10.17;87.11
41712;BME280;27399;51.516;13.670;2023-04-20T11:41:13;100908.00;;;10.14;87.18
41712;BME280;27399;51.516;13.670;2023-04-20T11:43:39;100897.38;;;10.22;86.86
41712;BME280;27399;51.516;13.670;2023-04-20T11:46:19;100904.47;;;10.20;86.72
41712;BME280;27399;51.516;13.670;2023-04-20T11:48:45;100908.03;;;10.08;87.35
41712;BME280;27399;51.516;13.670;2023-04-20T11:51:12;100904.47;;;10.23;86.58
41712;BME280;27399;51.516;13.670;2023-04-20T11:53:38;100898.25;;;10.24;89.04
41712;BME280;27399;51.516;13.670;2023-04-20T11:56:04;100896.47;;;10.11;89.13
41712;BME280;27399;51.516;13.670;2023-04-20T11:58:30;100897.34;;;10.19;87.76
41712;BME280;27399;51.516;13.670;2023-04-20T12:00:56;100892.03;;;10.31;87.79
41712;BME280;27399;51.516;13.670;2023-04-20T12:03:21;100887.63;;;10.46;87.24
41712;BME280;27399;51.516;13.670;2023-04-20T12:05:47;100886.72;;;10.45;88.21
41712;BME280;27399;51.516;13.670;2023-04-20T12:08:13;100881.38;;;10.54;87.11
41712;BME280;27399;51.516;13.670;2023-04-20T12:10:38;100883.16;;;10.62;86.47
41712;BME280;27399;51.516;13.670;2023-04-20T12:13:04;100887.59;;;10.52;87.36
41712;BME280;27399;51.516;13.670;2023-04-20T12:15:30;100884.06;;;10.65;86.70
41712;BME280;27399;51.516;13.670;2023-04-20T12:17:56;100883.13;;;10.69;87.21
41712;BME280;27399;51.516;13.670;2023-04-20T12:20:22;100869.81;;;10.66;84.53
41712;BME280;27399;51.516;13.670;2023-04-20T12:22:48;100885.81;;;10.76;86.03
41712;BME280;27399;51.516;13.670;2023-04-20T12:25:14;100876.00;;;10.79;85.51
41712;BME280;27399;51.516;13.670;2023-04-20T12:27:43;100884.00;;;10.84;85.50
41712;BME280;27399;51.516;13.670;2023-04-20T12:30:09;100877.78;;;10.82;85.98
41712;BME280;27399;51.516;13.670;2023-04-20T12:32:34;100877.81;;;10.79;85.47
41712;BME280;27399;51.516;13.670;2023-04-20T12:35:00;100870.63;;;10.90;85.69
41712;BME280;27399;51.516;13.670;2023-04-20T12:37:26;100869.75;;;10.91;86.72
41712;BME280;27399;51.516;13.670;2023-04-20T12:39:52;100859.97;;;10.85;84.83
41712;BME280;27399;51.516;13.670;2023-04-20T12:42:18;100854.63;;;10.99;85.17
41712;BME280;27399;51.516;13.670;2023-04-20T12:44:43;100859.06;;;10.94;86.39
41712;BME280;27399;51.516;13.670;2023-04-20T12:47:09;100853.69;;;11.11;85.48